createdAt,value
2018-10-16T00:01:04.663Z,19.60
2018-10-16T00:03:32.524Z,19.60
2018-10-16T00:06:00.040Z,19.50
2018-10-16T00:08:27.427Z,19.60
2018-10-16T00:10:54.793Z,19.60
2018-10-16T00:13:22.268Z,19.50
2018-10-16T00:15:49.756Z,19.50
2018-10-16T00:18:17.166Z,19.50
2018-10-16T00:20:44.597Z,19.50
2018-10-16T00:23:11.948Z,19.70
2018-10-16T00:25:39.304Z,19.50
2018-10-16T00:28:07.172Z,19.50
2018-10-16T00:30:34.678Z,19.50
2018-10-16T00:33:02.150Z,19.40
2018-10-16T00:35:29.545Z,19.40
2018-10-16T00:37:56.910Z,19.20
2018-10-16T00:40:24.426Z,19.60
2018-10-16T00:42:51.844Z,19.40
2018-10-16T00:45:19.194Z,19.40
2018-10-16T00:47:46.570Z,19.40
2018-10-16T00:50:14.035Z,19.40
2018-10-16T00:52:41.439Z,19.30
2018-10-16T00:55:09.612Z,19.30
2018-10-16T00:57:37.796Z,19.30
2018-10-16T01:00:06.054Z,19.30
2018-10-16T01:02:33.459Z,19.20
2018-10-16T01:05:00.941Z,19.30
2018-10-16T01:07:28.426Z,19.20
2018-10-16T01:09:55.805Z,19.20
2018-10-16T01:12:23.169Z,19.20
2018-10-16T01:14:50.582Z,19.20
2018-10-16T01:17:17.972Z,19.20
2018-10-16T01:19:45.335Z,19.20
2018-10-16T01:22:12.783Z,19.20
2018-10-16T01:24:40.148Z,19.20
2018-10-16T01:27:07.539Z,19.20
2018-10-16T01:29:34.918Z,19.10
2018-10-16T01:32:02.577Z,19.10
2018-10-16T01:34:30.162Z,19.10
2018-10-16T01:36:57.675Z,18.70
2018-10-16T01:39:25.145Z,19.10
2018-10-16T01:41:52.571Z,19.10
2018-10-16T01:44:20.027Z,19.10
2018-10-16T01:46:47.495Z,19.40
2018-10-16T01:49:14.955Z,19.10
2018-10-16T01:51:42.462Z,19.10
2018-10-16T01:54:09.949Z,19.00
2018-10-16T01:56:37.413Z,19.10
2018-10-16T01:59:04.911Z,19.10
2018-10-16T02:01:32.285Z,19.00
2018-10-16T02:03:59.668Z,19.00
2018-10-16T02:06:27.018Z,19.00
2018-10-16T02:08:54.450Z,19.00
2018-10-16T02:11:22.024Z,19.00
2018-10-16T02:13:49.450Z,19.00
2018-10-16T02:16:16.908Z,19.00
2018-10-16T02:18:44.439Z,19.00
2018-10-16T02:21:11.904Z,19.00
2018-10-16T02:23:39.242Z,19.00
2018-10-16T02:26:07.068Z,18.90
2018-10-16T02:28:34.496Z,18.90
2018-10-16T02:31:01.995Z,19.00
2018-10-16T02:33:29.500Z,19.00
2018-10-16T02:35:56.918Z,19.00
2018-10-16T02:38:24.290Z,19.00
2018-10-16T02:40:51.753Z,18.90
2018-10-16T02:43:19.139Z,18.90
2018-10-16T02:45:46.511Z,18.90
2018-10-16T02:48:13.900Z,18.90
2018-10-16T02:50:41.374Z,18.90
2018-10-16T02:53:08.785Z,18.90
2018-10-16T02:55:36.248Z,18.90
2018-10-16T02:58:03.719Z,18.80
2018-10-16T03:00:31.303Z,18.80
2018-10-16T03:02:58.714Z,18.80
2018-10-16T03:05:26.071Z,18.80
2018-10-16T03:07:53.431Z,18.80
2018-10-16T03:10:20.886Z,18.80
2018-10-16T03:12:48.248Z,18.90
2018-10-16T03:15:15.610Z,18.70
2018-10-16T03:17:43.057Z,18.70
2018-10-16T03:20:11.033Z,18.70
2018-10-16T03:22:39.134Z,18.70
2018-10-16T03:25:07.938Z,18.70
2018-10-16T03:27:36.392Z,18.70
2018-10-16T03:30:04.868Z,18.60
2018-10-16T03:32:32.298Z,18.60
2018-10-16T03:34:59.650Z,18.60
2018-10-16T03:37:27.052Z,18.50
2018-10-16T03:39:54.545Z,18.70
2018-10-16T03:42:21.977Z,18.50
2018-10-16T03:44:49.325Z,18.50
2018-10-16T03:47:16.769Z,18.50
2018-10-16T03:49:44.243Z,18.50
2018-10-16T03:52:11.667Z,18.70
2018-10-16T03:54:39.155Z,18.40
2018-10-16T03:57:06.605Z,18.40
2018-10-16T03:59:34.006Z,18.40
2018-10-16T04:02:01.471Z,18.40
2018-10-16T04:04:28.886Z,18.40
2018-10-16T04:06:56.334Z,18.40
2018-10-16T04:09:23.716Z,18.30
2018-10-16T04:11:51.544Z,18.30
2018-10-16T04:14:19.002Z,18.30
2018-10-16T04:16:46.428Z,18.30
2018-10-16T04:19:13.819Z,18.30
2018-10-16T04:21:43.304Z,18.30
2018-10-16T04:24:11.039Z,18.30
2018-10-16T04:26:38.506Z,18.20
2018-10-16T04:29:06.188Z,18.30
2018-10-16T04:31:33.633Z,18.20
2018-10-16T04:34:01.110Z,18.20
2018-10-16T04:36:28.660Z,18.20
2018-10-16T04:38:56.091Z,18.20
2018-10-16T04:41:23.789Z,18.20
2018-10-16T04:43:52.157Z,18.20
2018-10-16T04:46:20.177Z,18.10
2018-10-16T04:48:47.626Z,17.90
2018-10-16T04:51:15.130Z,18.20
2018-10-16T04:53:42.462Z,18.20
2018-10-16T04:56:09.903Z,18.20
2018-10-16T04:58:37.687Z,18.20
2018-10-16T05:01:05.212Z,18.10
2018-10-16T05:03:32.650Z,18.10
2018-10-16T05:06:00.149Z,18.10
2018-10-16T05:08:27.639Z,18.10
2018-10-16T05:10:55.136Z,18.10
2018-10-16T05:13:22.614Z,18.10
2018-10-16T05:15:50.146Z,18.10
2018-10-16T05:18:17.679Z,18.10
2018-10-16T05:20:45.150Z,18.10
2018-10-16T05:23:12.608Z,18.10
2018-10-16T05:25:40.083Z,18.10
2018-10-16T05:28:07.569Z,18.10
2018-10-16T05:30:35.078Z,18.10
2018-10-16T05:33:02.613Z,18.10
2018-10-16T05:35:30.101Z,18.10
2018-10-16T05:37:57.880Z,18.10
2018-10-16T05:40:25.343Z,18.10
2018-10-16T05:42:52.845Z,18.00
2018-10-16T05:45:20.442Z,18.00
2018-10-16T05:47:47.998Z,18.10
2018-10-16T05:50:15.441Z,18.10
2018-10-16T05:52:42.956Z,18.00
2018-10-16T05:55:10.825Z,18.00
2018-10-16T05:57:38.313Z,18.00
2018-10-16T06:00:17.449Z,18.00
2018-10-16T06:02:45.837Z,18.00
2018-10-16T06:05:13.319Z,18.00
2018-10-16T06:07:41.470Z,17.90
2018-10-16T06:10:08.910Z,18.00
2018-10-16T06:12:36.418Z,18.00
2018-10-16T06:15:04.647Z,18.00
2018-10-16T06:17:32.121Z,18.00
2018-10-16T06:19:59.621Z,18.00
2018-10-16T06:22:27.110Z,18.00
2018-10-16T06:24:54.561Z,17.90
2018-10-16T06:27:22.009Z,18.00
2018-10-16T06:29:49.470Z,18.00
2018-10-16T06:32:16.885Z,17.90
2018-10-16T06:34:44.370Z,18.00
2018-10-16T06:37:11.820Z,18.00
2018-10-16T06:39:39.272Z,18.00
2018-10-16T06:42:06.774Z,18.00
2018-10-16T06:44:34.184Z,18.00
2018-10-16T06:47:01.680Z,17.90
2018-10-16T06:49:29.078Z,17.90
2018-10-16T06:51:56.613Z,17.90
2018-10-16T06:54:24.024Z,17.90
2018-10-16T06:56:51.489Z,18.10
2018-10-16T06:59:19.087Z,17.90
2018-10-16T07:01:46.547Z,17.90
2018-10-16T07:04:14.111Z,17.90
2018-10-16T07:06:41.993Z,17.80
2018-10-16T07:09:09.481Z,17.80
2018-10-16T07:11:38.313Z,17.80
2018-10-16T07:14:07.637Z,17.90
2018-10-16T07:16:35.309Z,17.90
2018-10-16T07:19:02.933Z,17.90
2018-10-16T07:21:30.434Z,17.90
2018-10-16T07:23:57.860Z,17.90
2018-10-16T07:26:25.301Z,18.00
2018-10-16T07:28:52.757Z,18.00
2018-10-16T07:31:20.294Z,18.00
2018-10-16T07:33:47.778Z,18.10
2018-10-16T07:36:15.310Z,18.10
2018-10-16T07:38:42.872Z,18.10
2018-10-16T07:41:10.516Z,18.10
2018-10-16T07:43:38.093Z,18.20
2018-10-16T07:46:05.837Z,18.20
2018-10-16T07:48:33.594Z,18.30
2018-10-16T07:51:01.145Z,18.30
2018-10-16T07:53:28.654Z,18.30
2018-10-16T07:55:56.420Z,18.40
2018-10-16T07:58:23.918Z,18.40
2018-10-16T08:00:51.484Z,18.40
2018-10-16T08:03:18.989Z,18.40
2018-10-16T08:05:46.748Z,18.50
2018-10-16T08:08:14.236Z,18.50
2018-10-16T08:10:41.808Z,18.50
2018-10-16T08:13:09.245Z,18.50
2018-10-16T08:15:36.816Z,18.50
2018-10-16T08:18:04.675Z,18.60
2018-10-16T08:20:32.228Z,18.60
2018-10-16T08:22:59.718Z,18.60
2018-10-16T08:25:27.222Z,18.70
2018-10-16T08:27:54.731Z,18.70
2018-10-16T08:30:22.187Z,18.70
2018-10-16T08:32:49.703Z,18.70
2018-10-16T08:35:17.126Z,18.70
2018-10-16T08:39:05.552Z,18.70
2018-10-16T08:41:38.187Z,18.70
2018-10-16T08:45:16.250Z,18.80
2018-10-16T08:47:55.726Z,18.80
2018-10-16T08:50:36.092Z,18.90
2018-10-16T08:53:03.660Z,18.90
2018-10-16T08:55:31.148Z,18.90
2018-10-16T08:57:58.718Z,18.90
2018-10-16T09:00:26.294Z,18.90
2018-10-16T09:02:53.852Z,19.00
2018-10-16T09:05:21.429Z,19.00
2018-10-16T09:07:49.117Z,19.00
2018-10-16T09:10:16.634Z,19.10
2018-10-16T09:12:44.113Z,19.10
2018-10-16T09:15:11.562Z,19.10
2018-10-16T09:17:39.055Z,19.20
2018-10-16T09:20:07.108Z,19.20
2018-10-16T09:22:34.561Z,19.20
2018-10-16T09:25:03.128Z,19.20
2018-10-16T09:27:30.552Z,19.30
2018-10-16T09:29:57.934Z,19.70
2018-10-16T09:32:25.379Z,19.50
2018-10-16T09:34:52.933Z,19.20
2018-10-16T09:37:20.347Z,19.40
2018-10-16T09:39:47.855Z,19.50
2018-10-16T09:42:15.369Z,19.50
2018-10-16T09:44:42.774Z,19.50
2018-10-16T09:47:10.137Z,19.50
2018-10-16T09:49:37.661Z,19.60
2018-10-16T09:52:05.376Z,19.60
2018-10-16T09:54:32.896Z,19.30
2018-10-16T09:57:00.261Z,19.70
2018-10-16T09:59:27.742Z,19.80
2018-10-16T10:01:55.556Z,19.70
2018-10-16T10:04:23.093Z,19.70
2018-10-16T10:06:50.565Z,19.80
2018-10-16T10:09:17.934Z,19.80
2018-10-16T10:11:45.397Z,19.80
2018-10-16T10:14:12.938Z,19.90
2018-10-16T10:16:40.433Z,19.90
2018-10-16T10:19:07.840Z,19.90
2018-10-16T10:21:35.309Z,20.00
2018-10-16T10:24:02.860Z,20.00
2018-10-16T10:26:30.387Z,20.00
2018-10-16T10:28:58.209Z,20.10
2018-10-16T10:31:26.173Z,20.10
2018-10-16T10:33:53.568Z,20.10
2018-10-16T10:36:21.082Z,20.10
2018-10-16T10:38:48.539Z,20.20
2018-10-16T10:41:15.973Z,20.20
2018-10-16T10:43:43.477Z,20.20
2018-10-16T10:46:11.034Z,20.30
2018-10-16T10:48:38.545Z,20.30
2018-10-16T10:51:06.670Z,20.30
2018-10-16T10:53:33.963Z,20.40
2018-10-16T10:56:02.637Z,20.40
2018-10-16T10:58:30.229Z,20.50
2018-10-16T11:00:57.746Z,20.50
2018-10-16T11:03:25.366Z,20.60
2018-10-16T11:05:52.755Z,20.60
2018-10-16T11:08:20.177Z,20.60
2018-10-16T11:10:47.632Z,20.90
2018-10-16T11:13:15.176Z,20.70
2018-10-16T11:15:42.617Z,20.70
2018-10-16T11:18:10.053Z,20.70
2018-10-16T11:20:37.779Z,21.00
2018-10-16T11:23:05.201Z,20.80
2018-10-16T11:25:32.827Z,20.90
2018-10-16T11:28:00.452Z,20.90
2018-10-16T11:30:27.900Z,20.90
2018-10-16T11:32:55.393Z,20.90
2018-10-16T11:35:22.791Z,20.90
2018-10-16T11:37:50.583Z,21.00
2018-10-16T11:40:18.006Z,21.00
2018-10-16T11:42:45.479Z,21.00
2018-10-16T11:45:12.889Z,21.10
2018-10-16T11:47:40.545Z,21.10
2018-10-16T11:50:09.525Z,21.10
2018-10-16T11:52:37.257Z,21.20
2018-10-16T11:55:05.595Z,21.20
2018-10-16T11:57:33.130Z,21.20
2018-10-16T12:00:00.606Z,21.30
2018-10-16T12:02:28.235Z,21.30
2018-10-16T12:04:55.912Z,21.40
2018-10-16T12:07:23.549Z,21.50
2018-10-16T12:09:51.149Z,21.50
2018-10-16T12:12:19.005Z,21.50
2018-10-16T12:14:46.539Z,21.60
2018-10-16T12:17:19.887Z,21.60
2018-10-16T12:19:54.789Z,21.70
2018-10-16T12:22:22.230Z,21.70
2018-10-16T12:24:49.995Z,21.70
2018-10-16T12:27:17.476Z,21.80
2018-10-16T12:29:44.948Z,21.80
2018-10-16T12:32:12.448Z,21.80
2018-10-16T12:34:39.983Z,21.80
2018-10-16T12:37:07.452Z,21.80
2018-10-16T12:39:34.880Z,21.90
2018-10-16T12:42:02.825Z,21.90
2018-10-16T12:44:30.369Z,21.90
2018-10-16T12:46:57.926Z,21.90
2018-10-16T12:49:25.355Z,21.90
2018-10-16T12:51:52.808Z,21.90
2018-10-16T12:54:20.378Z,21.90
2018-10-16T12:56:47.866Z,22.20
2018-10-16T12:59:15.527Z,21.90
2018-10-16T13:01:42.961Z,21.90
2018-10-16T13:04:10.491Z,21.90
2018-10-16T13:06:38.575Z,21.90
2018-10-16T13:09:07.328Z,22.00
2018-10-16T13:11:35.086Z,22.00
2018-10-16T13:14:02.746Z,22.00
2018-10-16T13:16:30.098Z,22.10
2018-10-16T13:18:57.599Z,22.10
2018-10-16T13:21:25.323Z,22.10
2018-10-16T13:23:52.713Z,22.20
2018-10-16T13:26:20.084Z,22.20
2018-10-16T13:28:47.499Z,22.20
2018-10-16T13:31:14.945Z,22.30
2018-10-16T13:33:42.359Z,22.30
2018-10-16T13:36:09.733Z,22.30
2018-10-16T13:38:37.190Z,22.40
2018-10-16T13:41:04.707Z,22.40
2018-10-16T13:43:32.134Z,22.50
2018-10-16T13:45:59.607Z,22.60
2018-10-16T13:48:27.009Z,22.60
2018-10-16T13:50:54.517Z,22.60
2018-10-16T13:53:21.891Z,22.70
2018-10-16T13:55:49.321Z,22.70
2018-10-16T13:58:16.756Z,22.80
2018-10-16T14:00:45.070Z,22.90
2018-10-16T14:03:12.591Z,22.90
2018-10-16T14:05:40.027Z,23.00
2018-10-16T14:08:07.538Z,23.00
2018-10-16T14:10:34.979Z,23.00
2018-10-16T14:13:09.209Z,23.00
2018-10-16T14:15:36.675Z,23.00
2018-10-16T14:18:05.184Z,23.00
2018-10-16T14:20:32.721Z,23.00
2018-10-16T14:23:00.143Z,23.00
2018-10-16T14:25:27.547Z,23.00
2018-10-16T14:27:55.045Z,23.00
2018-10-16T14:30:23.474Z,23.00
2018-10-16T14:32:51.025Z,23.00
2018-10-16T14:35:18.540Z,23.00
2018-10-16T14:37:45.985Z,23.00
2018-10-16T14:40:14.777Z,23.00
2018-10-16T14:42:42.671Z,23.00
2018-10-16T14:45:11.115Z,23.00
2018-10-16T14:47:38.617Z,23.00
2018-10-16T14:50:07.152Z,23.00
2018-10-16T14:52:34.901Z,23.00
2018-10-16T14:55:02.662Z,23.00
2018-10-16T14:57:30.124Z,23.00
2018-10-16T14:59:57.657Z,23.00
2018-10-16T15:02:25.123Z,23.00
2018-10-16T15:04:52.658Z,23.00
2018-10-16T15:07:20.126Z,23.00
2018-10-16T15:09:47.760Z,23.00
2018-10-16T15:12:15.193Z,23.00
2018-10-16T15:14:42.649Z,23.00
2018-10-16T15:17:10.118Z,23.00
2018-10-16T15:19:37.543Z,22.90
2018-10-16T15:22:05.339Z,22.90
2018-10-16T15:24:32.887Z,22.90
2018-10-16T15:27:00.378Z,22.90
2018-10-16T15:29:28.462Z,22.90
2018-10-16T15:31:55.971Z,22.90
2018-10-16T15:34:23.506Z,22.80
2018-10-16T15:36:50.949Z,22.80
2018-10-16T15:39:18.515Z,22.80
2018-10-16T15:41:45.991Z,22.80
2018-10-16T15:44:13.440Z,22.70
2018-10-16T15:46:40.846Z,22.70
2018-10-16T15:49:08.407Z,22.40
2018-10-16T15:51:35.980Z,22.60
2018-10-16T15:54:04.011Z,22.70
2018-10-16T15:56:31.570Z,22.60
2018-10-16T15:58:59.240Z,22.60
2018-10-16T16:01:27.813Z,22.50
2018-10-16T16:03:55.497Z,22.50
2018-10-16T16:06:23.068Z,22.50
2018-10-16T16:08:50.620Z,22.30
2018-10-16T16:11:17.987Z,22.40
2018-10-16T16:13:45.414Z,22.40
2018-10-16T16:16:12.899Z,22.30
2018-10-16T16:18:40.319Z,22.30
2018-10-16T16:21:07.722Z,22.30
2018-10-16T16:23:35.114Z,22.30
2018-10-16T16:26:02.682Z,22.30
2018-10-16T16:28:30.175Z,22.20
2018-10-16T16:30:57.588Z,22.20
2018-10-16T16:33:25.086Z,22.20
2018-10-16T16:35:52.540Z,22.20
2018-10-16T16:38:19.995Z,22.10
2018-10-16T16:40:47.355Z,22.10
2018-10-16T16:43:14.766Z,22.00
2018-10-16T16:45:42.603Z,22.10
2018-10-16T16:48:09.987Z,22.00
2018-10-16T16:50:37.425Z,22.00
2018-10-16T16:53:04.824Z,22.00
2018-10-16T16:55:32.173Z,21.90
2018-10-16T16:57:59.582Z,21.90
2018-10-16T17:00:26.942Z,21.90
2018-10-16T17:02:54.337Z,21.80
2018-10-16T17:05:21.724Z,21.80
2018-10-16T17:07:49.124Z,21.80
2018-10-16T17:10:16.531Z,21.70
2018-10-16T17:12:44.069Z,21.70
2018-10-16T17:15:14.810Z,21.70
2018-10-16T17:17:44.074Z,21.70
2018-10-16T17:20:11.546Z,21.60
2018-10-16T17:22:38.896Z,21.60
2018-10-16T17:25:07.674Z,21.60
2018-10-16T17:27:35.071Z,21.60
2018-10-16T17:30:02.974Z,21.60
2018-10-16T17:32:30.801Z,21.60
2018-10-16T17:34:58.171Z,21.50
2018-10-16T17:37:25.710Z,21.50
2018-10-16T17:39:53.394Z,21.60
2018-10-16T17:42:20.867Z,21.50
2018-10-16T17:44:48.698Z,21.40
2018-10-16T17:47:16.154Z,21.40
2018-10-16T17:49:43.538Z,21.40
2018-10-16T17:52:11.368Z,21.40
2018-10-16T17:55:43.949Z,21.00
2018-10-16T17:58:11.333Z,21.40
2018-10-16T18:00:38.952Z,21.30
2018-10-16T18:03:06.818Z,21.30
2018-10-16T18:05:34.408Z,21.30
2018-10-16T18:08:01.822Z,21.30
2018-10-16T18:10:29.405Z,21.20
2018-10-16T18:12:56.754Z,21.20
2018-10-16T18:15:24.384Z,20.90
2018-10-16T18:17:51.769Z,21.20
2018-10-16T18:20:19.710Z,21.20
2018-10-16T18:22:47.338Z,21.20
2018-10-16T18:25:15.020Z,21.20
2018-10-16T18:27:43.160Z,21.20
2018-10-16T18:30:11.246Z,21.20
2018-10-16T18:32:38.812Z,21.20
2018-10-16T18:35:06.724Z,21.10
2018-10-16T18:37:34.206Z,21.00
2018-10-16T18:40:01.800Z,21.10
2018-10-16T18:42:29.460Z,21.10
2018-10-16T18:44:56.961Z,21.00
2018-10-16T18:47:24.654Z,21.10
2018-10-16T18:49:52.313Z,21.00
2018-10-16T18:52:20.041Z,21.00
2018-10-16T18:54:47.417Z,21.00
2018-10-16T18:57:14.869Z,21.00
2018-10-16T18:59:42.525Z,20.80
2018-10-16T19:02:10.281Z,21.00
2018-10-16T19:04:37.921Z,21.00
2018-10-16T19:07:05.302Z,20.90
2018-10-16T19:09:32.662Z,20.90
2018-10-16T19:12:00.343Z,20.90
2018-10-16T19:14:27.888Z,20.90
2018-10-16T19:16:55.387Z,20.90
2018-10-16T19:19:22.785Z,20.90
2018-10-16T19:21:50.174Z,20.90
2018-10-16T19:24:17.668Z,20.90
2018-10-16T19:26:44.986Z,20.50
2018-10-16T19:29:12.778Z,20.80
2018-10-16T19:31:40.189Z,20.80
2018-10-16T19:34:07.633Z,20.80
2018-10-16T19:36:35.330Z,20.80
2018-10-16T19:39:04.704Z,20.80
2018-10-16T19:41:32.036Z,20.80
2018-10-16T19:43:59.413Z,20.70
2018-10-16T19:46:27.179Z,20.70
2018-10-16T19:48:54.594Z,20.70
2018-10-16T19:51:22.171Z,20.70
2018-10-16T19:53:49.577Z,20.70
2018-10-16T19:56:16.902Z,20.70
2018-10-16T19:58:44.650Z,20.70
2018-10-16T20:01:12.051Z,20.70
2018-10-16T20:03:39.622Z,20.70
2018-10-16T20:06:07.054Z,20.60
2018-10-16T20:08:34.457Z,20.70
2018-10-16T20:11:02.006Z,20.70
2018-10-16T20:13:29.433Z,20.60
2018-10-16T20:15:56.891Z,20.60
2018-10-16T20:18:24.288Z,20.70
2018-10-16T20:20:51.822Z,20.60
2018-10-16T20:23:19.163Z,20.60
2018-10-16T20:25:46.583Z,20.60
2018-10-16T20:28:13.999Z,20.60
2018-10-16T20:30:41.619Z,20.60
2018-10-16T20:33:09.011Z,20.60
2018-10-16T20:35:36.494Z,20.70
2018-10-16T20:38:04.689Z,20.90
2018-10-16T20:40:32.251Z,20.60
2018-10-16T20:42:59.736Z,20.60
2018-10-16T20:45:27.190Z,20.60
2018-10-16T20:47:54.517Z,20.60
2018-10-16T20:50:21.964Z,20.50
2018-10-16T20:52:49.498Z,20.50
2018-10-16T20:55:17.083Z,20.50
2018-10-16T20:57:44.452Z,20.30
2018-10-16T21:00:11.850Z,20.40
2018-10-16T21:02:39.289Z,20.40
2018-10-16T21:05:07.661Z,20.40
2018-10-16T21:07:34.827Z,20.30
2018-10-16T21:10:02.378Z,20.30
2018-10-16T21:12:29.793Z,20.30
2018-10-16T21:14:57.194Z,20.30
2018-10-16T21:17:24.633Z,20.30
2018-10-16T21:19:52.161Z,20.20
2018-10-16T21:22:19.560Z,20.20
2018-10-16T21:24:46.983Z,20.30
2018-10-16T21:27:14.353Z,20.20
2018-10-16T21:29:41.837Z,20.20
2018-10-16T21:32:09.336Z,20.10
2018-10-16T21:34:36.680Z,20.10
2018-10-16T21:37:04.189Z,20.20
2018-10-16T21:39:31.544Z,20.10
2018-10-16T21:41:59.005Z,20.10
2018-10-16T21:44:26.332Z,20.10
2018-10-16T21:46:53.906Z,20.10
2018-10-16T21:49:22.028Z,20.10
2018-10-16T21:51:49.444Z,20.10
2018-10-16T21:54:16.911Z,20.10
2018-10-16T21:56:44.595Z,20.10
2018-10-16T21:59:12.094Z,20.20
2018-10-16T22:01:45.053Z,20.10
2018-10-16T22:04:12.538Z,20.20
2018-10-16T22:06:39.937Z,20.20
2018-10-16T22:09:10.514Z,20.20
2018-10-16T22:11:37.918Z,20.20
2018-10-16T22:14:05.853Z,20.20
2018-10-16T22:16:33.348Z,20.20
2018-10-16T22:19:00.810Z,20.20
2018-10-16T22:21:28.185Z,20.20
2018-10-16T22:23:55.542Z,20.20
2018-10-16T22:26:22.954Z,20.20
2018-10-16T22:28:50.284Z,20.20
2018-10-16T22:31:17.830Z,20.40
2018-10-16T22:33:45.504Z,20.20
2018-10-16T22:36:12.871Z,20.20
2018-10-16T22:38:40.316Z,20.20
2018-10-16T22:41:07.773Z,20.20
2018-10-16T22:43:35.071Z,20.20
2018-10-16T22:46:02.485Z,20.20
2018-10-16T22:48:29.840Z,20.20
2018-10-16T22:50:57.189Z,20.20
2018-10-16T22:53:24.577Z,20.20
2018-10-16T22:55:52.034Z,20.20
2018-10-16T22:58:19.394Z,20.20
2018-10-16T23:00:46.722Z,20.10
2018-10-16T23:03:14.146Z,20.20
2018-10-16T23:05:47.417Z,20.20
2018-10-16T23:08:20.813Z,20.20
2018-10-16T23:10:48.168Z,20.10
2018-10-16T23:13:15.569Z,20.00
2018-10-16T23:15:42.960Z,20.10
2018-10-16T23:18:10.298Z,20.10
2018-10-16T23:20:37.788Z,20.10
2018-10-16T23:23:06.232Z,20.10
2018-10-16T23:25:33.529Z,20.10
2018-10-16T23:28:01.189Z,20.10
2018-10-16T23:30:28.540Z,20.20
2018-10-16T23:32:55.903Z,20.10
2018-10-16T23:35:23.301Z,20.10
2018-10-16T23:37:50.744Z,20.10
2018-10-16T23:40:18.110Z,20.10
2018-10-16T23:42:45.564Z,20.00
2018-10-16T23:45:13.027Z,20.10
2018-10-16T23:47:40.398Z,20.10
2018-10-16T23:50:07.718Z,20.10
2018-10-16T23:52:35.169Z,20.10
2018-10-16T23:55:02.600Z,20.00
2018-10-16T23:57:29.884Z,20.00
2018-10-16T23:59:57.216Z,20.00
